sensor_id;sensor_type;location;lat;lon;timestamp;pressure;altitude;pressure_sealevel;temperature;humidity
11413;BME280;5762;43.256;26.960;2023-03-13T00:01:21;100027.56;;;3.41;100.00
11413;BME280;5762;43.256;26.960;2023-03-13T00:03:45;100023.89;;;3.47;100.00
11413;BME280;5762;43.256;26.960;2023-03-13T00:06:14;100026.31;;;3.46;100.00
11413;BME280;5762;43.256;26.960;2023-03-13T00:08:43;100037.34;;;3.52;100.00
11413;BME280;5762;43.256;26.960;2023-03-13T00:11:12;100037.34;;;3.52;100.00
11413;BME280;5762;43.256;26.960;2023-03-13T00:13:41;100033.37;;;3.54;100.00
11413;BME280;5762;43.256;26.960;2023-03-13T00:16:11;100029.84;;;3.68;100.00
11413;BME280;5762;43.256;26.960;2023-03-13T00:18:46;100032.97;;;3.62;100.00
11413;BME280;5762;43.256;26.960;2023-03-13T00:21:15;100037.02;;;3.65;100.00
11413;BME280;5762;43.256;26.960;2023-03-13T00:23:45;100030.73;;;3.57;100.00
11413;BME280;5762;43.256;26.960;2023-03-13T00:26:14;100031.47;;;3.52;100.00
11413;BME280;5762;43.256;26.960;2023-03-13T00:28:42;100033.01;;;3.48;100.00
11413;BME280;5762;43.256;26.960;2023-03-13T00:31:12;100035.16;;;3.49;100.00
11413;BME280;5762;43.256;26.960;2023-03-13T00:33:41;100040.45;;;3.44;100.00
11413;BME280;5762;43.256;26.960;2023-03-13T00:36:13;100035.44;;;3.50;100.00
11413;BME280;5762;43.256;26.960;2023-03-13T00:38:42;100037.77;;;3.27;100.00
11413;BME280;5762;43.256;26.960;2023-03-13T00:41:12;100034.52;;;3.25;100.00
11413;BME280;5762;43.256;26.960;2023-03-13T00:43:41;100043.23;;;3.01;100.00
11413;BME280;5762;43.256;26.960;2023-03-13T00:46:10;100040.70;;;2.94;100.00
11413;BME280;5762;43.256;26.960;2023-03-13T00:48:40;100039.45;;;2.85;100.00
11413;BME280;5762;43.256;26.960;2023-03-13T00:51:09;100043.59;;;2.76;100.00
11413;BME280;5762;43.256;26.960;2023-03-13T00:53:38;100035.72;;;2.69;100.00
11413;BME280;5762;43.256;26.960;2023-03-13T00:56:08;100033.52;;;2.66;100.00
11413;BME280;5762;43.256;26.960;2023-03-13T00:58:37;100035.23;;;2.58;100.00
11413;BME280;5762;43.256;26.960;2023-03-13T01:01:10;100037.75;;;2.51;100.00
11413;BME280;5762;43.256;26.960;2023-03-13T01:03:36;100047.23;;;2.44;100.00
11413;BME280;5762;43.256;26.960;2023-03-13T01:06:07;100047.45;;;2.40;100.00
11413;BME280;5762;43.256;26.960;2023-03-13T01:08:35;100044.75;;;2.26;100.00
11413;BME280;5762;43.256;26.960;2023-03-13T01:11:08;100042.84;;;2.24;100.00
11413;BME280;5762;43.256;26.960;2023-03-13T01:13:37;100042.84;;;2.24;100.00
11413;BME280;5762;43.256;26.960;2023-03-13T01:16:07;100055.09;;;2.11;100.00
11413;BME280;5762;43.256;26.960;2023-03-13T01:18:36;100062.06;;;2.12;100.00
11413;BME280;5762;43.256;26.960;2023-03-13T01:21:05;100062.50;;;2.06;100.00
11413;BME280;5762;43.256;26.960;2023-03-13T01:23:34;100067.87;;;2.09;100.00
11413;BME280;5762;43.256;26.960;2023-03-13T01:26:04;100065.92;;;2.04;100.00
11413;BME280;5762;43.256;26.960;2023-03-13T01:28:33;100060.53;;;2.01;100.00
11413;BME280;5762;43.256;26.960;2023-03-13T01:31:16;100069.30;;;1.99;100.00
11413;BME280;5762;43.256;26.960;2023-03-13T01:33:41;100074.81;;;1.95;100.00
11413;BME280;5762;43.256;26.960;2023-03-13T01:36:09;100079.45;;;1.88;100.00
11413;BME280;5762;43.256;26.960;2023-03-13T01:38:39;100075.09;;;1.85;100.00
11413;BME280;5762;43.256;26.960;2023-03-13T01:41:08;100081.36;;;1.79;100.00
11413;BME280;5762;43.256;26.960;2023-03-13T01:43:37;100086.86;;;1.51;100.00
11413;BME280;5762;43.256;26.960;2023-03-13T01:51:17;100101.75;;;1.17;100.00
11413;BME280;5762;43.256;26.960;2023-03-13T01:53:45;100116.66;;;1.37;100.00
11413;BME280;5762;43.256;26.960;2023-03-13T01:56:17;100117.56;;;1.42;100.00
11413;BME280;5762;43.256;26.960;2023-03-13T01:58:44;100112.45;;;1.41;100.00
11413;BME280;5762;43.256;26.960;2023-03-13T02:01:13;100113.17;;;1.36;100.00
11413;BME280;5762;43.256;26.960;2023-03-13T02:03:43;100059.53;;;0.82;100.00
11413;BME280;5762;43.256;26.960;2023-03-13T02:06:12;100119.46;;;1.12;100.00
11413;BME280;5762;43.256;26.960;2023-03-13T02:08:45;100128.36;;;1.06;100.00
11413;BME280;5762;43.256;26.960;2023-03-13T02:14:00;100135.97;;;1.11;100.00
11413;BME280;5762;43.256;26.960;2023-03-13T02:16:31;100139.52;;;1.14;100.00
11413;BME280;5762;43.256;26.960;2023-03-13T02:19:00;100143.95;;;1.20;100.00
11413;BME280;5762;43.256;26.960;2023-03-13T02:21:37;100139.81;;;1.15;100.00
11413;BME280;5762;43.256;26.960;2023-03-13T02:24:10;100148.33;;;1.15;100.00
11413;BME280;5762;43.256;26.960;2023-03-13T02:26:37;100157.74;;;1.08;100.00
11413;BME280;5762;43.256;26.960;2023-03-13T02:29:06;100163.23;;;1.04;100.00
11413;BME280;5762;43.256;26.960;2023-03-13T02:31:34;100170.70;;;1.05;100.00
11413;BME280;5762;43.256;26.960;2023-03-13T02:34:03;100174.55;;;1.09;100.00
11413;BME280;5762;43.256;26.960;2023-03-13T02:36:32;100178.66;;;1.02;100.00
11413;BME280;5762;43.256;26.960;2023-03-13T02:39:02;100181.11;;;0.94;100.00
11413;BME280;5762;43.256;26.960;2023-03-13T02:41:31;100179.26;;;0.95;100.00
11413;BME280;5762;43.256;26.960;2023-03-13T02:44:00;100171.56;;;0.87;100.00
11413;BME280;5762;43.256;26.960;2023-03-13T02:46:28;100175.34;;;0.88;100.00
11413;BME280;5762;43.256;26.960;2023-03-13T02:48:57;100177.78;;;0.90;100.00
11413;BME280;5762;43.256;26.960;2023-03-13T02:51:34;100181.62;;;0.85;100.00
11413;BME280;5762;43.256;26.960;2023-03-13T02:54:06;100188.52;;;0.83;100.00
11413;BME280;5762;43.256;26.960;2023-03-13T02:56:35;100189.47;;;0.71;100.00
11413;BME280;5762;43.256;26.960;2023-03-13T02:59:04;100183.58;;;0.59;100.00
11413;BME280;5762;43.256;26.960;2023-03-13T03:01:32;100191.78;;;0.58;100.00
11413;BME280;5762;43.256;26.960;2023-03-13T03:04:01;100192.52;;;0.47;100.00
11413;BME280;5762;43.256;26.960;2023-03-13T03:06:30;100187.77;;;0.40;100.00
11413;BME280;5762;43.256;26.960;2023-03-13T03:08:58;100195.83;;;0.42;100.00
11413;BME280;5762;43.256;26.960;2023-03-13T03:11:26;100199.30;;;0.24;100.00
11413;BME280;5762;43.256;26.960;2023-03-13T03:13:55;100200.45;;;0.10;100.00
11413;BME280;5762;43.256;26.960;2023-03-13T03:16:23;100201.48;;;0.00;100.00
11413;BME280;5762;43.256;26.960;2023-03-13T03:18:52;100209.21;;;0.02;100.00
11413;BME280;5762;43.256;26.960;2023-03-13T03:21:21;100217.92;;;-0.10;100.00
11413;BME280;5762;43.256;26.960;2023-03-13T03:23:50;100217.23;;;-0.14;100.00
11413;BME280;5762;43.256;26.960;2023-03-13T03:26:19;100216.81;;;-0.27;100.00
11413;BME280;5762;43.256;26.960;2023-03-13T03:28:48;100221.81;;;-0.37;100.00
11413;BME280;5762;43.256;26.960;2023-03-13T03:31:16;100219.59;;;-0.62;100.00
11413;BME280;5762;43.256;26.960;2023-03-13T03:33:46;100223.64;;;-0.53;100.00
11413;BME280;5762;43.256;26.960;2023-03-13T03:36:16;100236.06;;;-0.31;100.00
11413;BME280;5762;43.256;26.960;2023-03-13T03:38:44;100237.36;;;-0.25;100.00
11413;BME280;5762;43.256;26.960;2023-03-13T03:41:12;100240.19;;;-0.20;100.00
11413;BME280;5762;43.256;26.960;2023-03-13T03:43:41;100237.41;;;-0.16;100.00
11413;BME280;5762;43.256;26.960;2023-03-13T03:46:10;100237.41;;;-0.16;100.00
11413;BME280;5762;43.256;26.960;2023-03-13T03:48:39;100237.02;;;-0.19;100.00
11413;BME280;5762;43.256;26.960;2023-03-13T03:51:07;100243.45;;;-0.18;100.00
11413;BME280;5762;43.256;26.960;2023-03-13T03:53:36;100244.70;;;-0.20;100.00
11413;BME280;5762;43.256;26.960;2023-03-13T03:56:04;100249.32;;;-0.25;100.00
11413;BME280;5762;43.256;26.960;2023-03-13T03:58:33;100255.13;;;-0.19;100.00
11413;BME280;5762;43.256;26.960;2023-03-13T04:01:02;100265.97;;;-0.20;100.00
11413;BME280;5762;43.256;26.960;2023-03-13T04:03:31;100262.92;;;-0.24;100.00
11413;BME280;5762;43.256;26.960;2023-03-13T04:06:00;100267.48;;;-0.15;100.00
11413;BME280;5762;43.256;26.960;2023-03-13T04:08:29;100276.40;;;-0.19;100.00
11413;BME280;5762;43.256;26.960;2023-03-13T04:11:01;100276.27;;;-0.15;100.00
11413;BME280;5762;43.256;26.960;2023-03-13T04:13:30;100276.40;;;-0.19;100.00
11413;BME280;5762;43.256;26.960;2023-03-13T04:15:58;100280.05;;;-0.13;100.00
11413;BME280;5762;43.256;26.960;2023-03-13T04:18:27;100284.42;;;-0.10;100.00
11413;BME280;5762;43.256;26.960;2023-03-13T04:21:03;100296.31;;;-0.12;100.00
11413;BME280;5762;43.256;26.960;2023-03-13T04:23:32;100289.18;;;-0.18;100.00
11413;BME280;5762;43.256;26.960;2023-03-13T04:26:01;100300.80;;;0.03;100.00
11413;BME280;5762;43.256;26.960;2023-03-13T04:28:30;100298.30;;;0.08;100.00
11413;BME280;5762;43.256;26.960;2023-03-13T04:30:59;100316.29;;;0.13;100.00
11413;BME280;5762;43.256;26.960;2023-03-13T04:33:27;100324.02;;;0.21;100.00
11413;BME280;5762;43.256;26.960;2023-03-13T04:35:56;100327.41;;;0.19;100.00
11413;BME280;5762;43.256;26.960;2023-03-13T04:38:25;100333.38;;;0.14;100.00
11413;BME280;5762;43.256;26.960;2023-03-13T04:40:54;100325.99;;;0.16;100.00
11413;BME280;5762;43.256;26.960;2023-03-13T04:43:23;100327.97;;;0.27;100.00
11413;BME280;5762;43.256;26.960;2023-03-13T04:45:52;100335.31;;;0.32;100.00
11413;BME280;5762;43.256;26.960;2023-03-13T04:48:22;100332.95;;;0.42;100.00
11413;BME280;5762;43.256;26.960;2023-03-13T04:50:51;100335.45;;;0.37;100.00
11413;BME280;5762;43.256;26.960;2023-03-13T04:53:20;100329.52;;;0.35;100.00
11413;BME280;5762;43.256;26.960;2023-03-13T04:55:49;100333.34;;;0.46;100.00
11413;BME280;5762;43.256;26.960;2023-03-13T04:58:18;100342.57;;;0.43;100.00
11413;BME280;5762;43.256;26.960;2023-03-13T05:00:47;100336.68;;;0.50;100.00
11413;BME280;5762;43.256;26.960;2023-03-13T05:03:16;100343.80;;;0.56;100.00
11413;BME280;5762;43.256;26.960;2023-03-13T05:05:44;100349.05;;;0.54;100.00
11413;BME280;5762;43.256;26.960;2023-03-13T05:08:13;100353.30;;;0.61;100.00
11413;BME280;5762;43.256;26.960;2023-03-13T05:10:41;100353.59;;;0.72;100.00
11413;BME280;5762;43.256;26.960;2023-03-13T05:13:10;100354.79;;;0.76;100.00
11413;BME280;5762;43.256;26.960;2023-03-13T05:15:38;100363.08;;;0.77;100.00
11413;BME280;5762;43.256;26.960;2023-03-13T05:18:07;100363.68;;;0.79;100.00
11413;BME280;5762;43.256;26.960;2023-03-13T05:20:35;100361.58;;;0.62;100.00
11413;BME280;5762;43.256;26.960;2023-03-13T05:23:03;100358.43;;;0.81;100.00
11413;BME280;5762;43.256;26.960;2023-03-13T05:25:32;100351.25;;;0.82;100.00
11413;BME280;5762;43.256;26.960;2023-03-13T05:28:01;100349.94;;;0.91;100.00
11413;BME280;5762;43.256;26.960;2023-03-13T05:30:30;100350.30;;;0.85;100.00
11413;BME280;5762;43.256;26.960;2023-03-13T05:32:58;100362.45;;;0.90;100.00
11413;BME280;5762;43.256;26.960;2023-03-13T05:35:27;100359.07;;;1.02;100.00
11413;BME280;5762;43.256;26.960;2023-03-13T05:37:55;100358.04;;;1.03;100.00
11413;BME280;5762;43.256;26.960;2023-03-13T05:40:24;100366.16;;;1.08;100.00
11413;BME280;5762;43.256;26.960;2023-03-13T05:42:53;100363.13;;;1.13;100.00
11413;BME280;5762;43.256;26.960;2023-03-13T05:45:21;100372.98;;;1.40;100.00
11413;BME280;5762;43.256;26.960;2023-03-13T05:47:50;100373.36;;;1.62;100.00
11413;BME280;5762;43.256;26.960;2023-03-13T05:50:19;100375.14;;;1.68;100.00
11413;BME280;5762;43.256;26.960;2023-03-13T05:52:47;100379.29;;;1.73;100.00
11413;BME280;5762;43.256;26.960;2023-03-13T05:55:17;100385.17;;;1.93;100.00
11413;BME280;5762;43.256;26.960;2023-03-13T05:57:45;100391.38;;;2.06;100.00
11413;BME280;5762;43.256;26.960;2023-03-13T06:00:15;100385.92;;;2.12;100.00
11413;BME280;5762;43.256;26.960;2023-03-13T06:02:44;100396.95;;;2.25;100.00
11413;BME280;5762;43.256;26.960;2023-03-13T06:05:12;100393.84;;;2.19;100.00
11413;BME280;5762;43.256;26.960;2023-03-13T06:07:41;100395.77;;;2.21;100.00
11413;BME280;5762;43.256;26.960;2023-03-13T06:10:10;100399.33;;;2.24;100.00
11413;BME280;5762;43.256;26.960;2023-03-13T06:12:39;100398.94;;;2.29;100.00
11413;BME280;5762;43.256;26.960;2023-03-13T06:15:08;100401.09;;;2.30;100.00
11413;BME280;5762;43.256;26.960;2023-03-13T06:17:36;100400.94;;;2.46;100.00
11413;BME280;5762;43.256;26.960;2023-03-13T06:20:05;100401.53;;;2.68;100.00
11413;BME280;5762;43.256;26.960;2023-03-13T06:22:34;100399.86;;;2.77;100.00
11413;BME280;5762;43.256;26.960;2023-03-13T06:25:02;100400.84;;;2.85;100.00
11413;BME280;5762;43.256;26.960;2023-03-13T06:27:31;100408.29;;;2.94;100.00
11413;BME280;5762;43.256;26.960;2023-03-13T06:30:00;100398.66;;;3.05;100.00
11413;BME280;5762;43.256;26.960;2023-03-13T06:32:28;100400.78;;;3.17;100.00
11413;BME280;5762;43.256;26.960;2023-03-13T06:34:57;100400.78;;;3.17;100.00
11413;BME280;5762;43.256;26.960;2023-03-13T06:37:26;100397.47;;;3.13;100.00
11413;BME280;5762;43.256;26.960;2023-03-13T06:39:54;100403.92;;;3.14;100.00
11413;BME280;5762;43.256;26.960;2023-03-13T06:42:23;100405.49;;;3.24;100.00
11413;BME280;5762;43.256;26.960;2023-03-13T06:44:52;100404.62;;;3.33;100.00
11413;BME280;5762;43.256;26.960;2023-03-13T06:47:21;100408.95;;;3.48;100.00
11413;BME280;5762;43.256;26.960;2023-03-13T06:49:49;100410.56;;;3.61;100.00
11413;BME280;5762;43.256;26.960;2023-03-13T06:52:17;100415.57;;;3.57;100.00
11413;BME280;5762;43.256;26.960;2023-03-13T06:54:46;100405.25;;;3.75;100.00
11413;BME280;5762;43.256;26.960;2023-03-13T06:57:14;100402.39;;;3.79;100.00
11413;BME280;5762;43.256;26.960;2023-03-13T06:59:43;100405.25;;;3.75;100.00
11413;BME280;5762;43.256;26.960;2023-03-13T07:02:12;100408.91;;;4.12;100.00
11413;BME280;5762;43.256;26.960;2023-03-13T07:04:41;100401.27;;;4.20;100.00
11413;BME280;5762;43.256;26.960;2023-03-13T07:07:10;100401.47;;;4.30;100.00
11413;BME280;5762;43.256;26.960;2023-03-13T07:09:39;100399.94;;;4.34;100.00
11413;BME280;5762;43.256;26.960;2023-03-13T07:12:08;100391.52;;;4.59;100.00
11413;BME280;5762;43.256;26.960;2023-03-13T07:14:39;100389.09;;;4.75;100.00
11413;BME280;5762;43.256;26.960;2023-03-13T07:17:06;100374.97;;;4.98;100.00
11413;BME280;5762;43.256;26.960;2023-03-13T07:19:35;100375.53;;;5.17;100.00
11413;BME280;5762;43.256;26.960;2023-03-13T07:22:04;100370.81;;;5.46;100.00
11413;BME280;5762;43.256;26.960;2023-03-13T07:24:33;100364.41;;;5.30;100.00
11413;BME280;5762;43.256;26.960;2023-03-13T07:27:02;100361.38;;;5.44;100.00
11413;BME280;5762;43.256;26.960;2023-03-13T07:29:30;100363.08;;;5.50;100.00
11413;BME280;5762;43.256;26.960;2023-03-13T07:31:59;100352.69;;;5.58;100.00
11413;BME280;5762;43.256;26.960;2023-03-13T07:34:28;100347.76;;;5.72;100.00
11413;BME280;5762;43.256;26.960;2023-03-13T07:36:57;100349.00;;;5.86;100.00
11413;BME280;5762;43.256;26.960;2023-03-13T07:39:26;100345.37;;;5.97;100.00
11413;BME280;5762;43.256;26.960;2023-03-13T07:41:55;100349.95;;;6.26;100.00
11413;BME280;5762;43.256;26.960;2023-03-13T07:44:24;100349.72;;;6.30;100.00
11413;BME280;5762;43.256;26.960;2023-03-13T07:46:53;100349.01;;;6.40;100.00
11413;BME280;5762;43.256;26.960;2023-03-13T07:49:21;100350.02;;;6.66;100.00
11413;BME280;5762;43.256;26.960;2023-03-13T07:51:50;100348.66;;;6.63;100.00
11413;BME280;5762;43.256;26.960;2023-03-13T07:54:18;100348.19;;;6.71;100.00
11413;BME280;5762;43.256;26.960;2023-03-13T07:56:47;100342.42;;;6.95;100.00
11413;BME280;5762;43.256;26.960;2023-03-13T07:59:16;100345.28;;;7.20;100.00
11413;BME280;5762;43.256;26.960;2023-03-13T08:01:45;100343.37;;;7.16;100.00
11413;BME280;5762;43.256;26.960;2023-03-13T08:04:14;100346.88;;;7.16;100.00
11413;BME280;5762;43.256;26.960;2023-03-13T08:06:43;100332.47;;;7.45;100.00
11413;BME280;5762;43.256;26.960;2023-03-13T08:09:12;100341.95;;;7.55;100.00
11413;BME280;5762;43.256;26.960;2023-03-13T08:11:40;100337.92;;;7.58;100.00
11413;BME280;5762;43.256;26.960;2023-03-13T08:14:13;100342.62;;;8.05;100.00
11413;BME280;5762;43.256;26.960;2023-03-13T08:16:42;100335.13;;;8.28;100.00
11413;BME280;5762;43.256;26.960;2023-03-13T08:19:11;100333.27;;;8.54;100.00
11413;BME280;5762;43.256;26.960;2023-03-13T08:21:40;100332.19;;;8.55;100.00
11413;BME280;5762;43.256;26.960;2023-03-13T08:24:09;100334.86;;;8.85;100.00
11413;BME280;5762;43.256;26.960;2023-03-13T08:26:39;100335.13;;;8.79;100.00
11413;BME280;5762;43.256;26.960;2023-03-13T08:29:09;100329.46;;;8.85;100.00
11413;BME280;5762;43.256;26.960;2023-03-13T08:31:38;100332.11;;;9.03;100.00
11413;BME280;5762;43.256;26.960;2023-03-13T08:34:06;100337.02;;;8.96;100.00
11413;BME280;5762;43.256;26.960;2023-03-13T08:36:35;100334.00;;;9.02;100.00
11413;BME280;5762;43.256;26.960;2023-03-13T08:39:04;100329.94;;;9.13;100.00
11413;BME280;5762;43.256;26.960;2023-03-13T08:41:33;100331.19;;;9.40;100.00
11413;BME280;5762;43.256;26.960;2023-03-13T08:44:02;100330.86;;;9.60;100.00
11413;BME280;5762;43.256;26.960;2023-03-13T08:46:33;100328.96;;;9.63;100.00
11413;BME280;5762;43.256;26.960;2023-03-13T08:49:01;100331.82;;;9.82;100.00
11413;BME280;5762;43.256;26.960;2023-03-13T08:51:31;100333.03;;;9.58;100.00
11413;BME280;5762;43.256;26.960;2023-03-13T08:54:00;100326.02;;;9.52;100.00
11413;BME280;5762;43.256;26.960;2023-03-13T08:56:29;100329.59;;;9.96;100.00
11413;BME280;5762;43.256;26.960;2023-03-13T08:58:59;100340.27;;;10.17;97.74
11413;BME280;5762;43.256;26.960;2023-03-13T09:01:28;100333.91;;;9.97;100.00
11413;BME280;5762;43.256;26.960;2023-03-13T09:03:57;100342.95;;;10.27;100.00
11413;BME280;5762;43.256;26.960;2023-03-13T09:06:26;100339.23;;;10.07;100.00
11413;BME280;5762;43.256;26.960;2023-03-13T09:08:55;100334.95;;;10.04;100.00
11413;BME280;5762;43.256;26.960;2023-03-13T09:11:25;100336.67;;;10.34;100.00
11413;BME280;5762;43.256;26.960;2023-03-13T09:13:53;100340.47;;;10.67;100.00
11413;BME280;5762;43.256;26.960;2023-03-13T09:16:23;100341.93;;;10.83;97.89
11413;BME280;5762;43.256;26.960;2023-03-13T09:18:52;100346.34;;;10.40;89.83
11413;BME280;5762;43.256;26.960;2023-03-13T09:21:26;100339.36;;;10.36;92.52
11413;BME280;5762;43.256;26.960;2023-03-13T09:23:50;100338.58;;;10.33;93.31
11413;BME280;5762;43.256;26.960;2023-03-13T09:26:18;100330.24;;;10.25;87.83
11413;BME280;5762;43.256;26.960;2023-03-13T09:28:47;100335.09;;;10.62;89.80
11413;BME280;5762;43.256;26.960;2023-03-13T09:31:16;100323.91;;;11.00;84.34
11413;BME280;5762;43.256;26.960;2023-03-13T09:33:45;100321.77;;;10.97;84.65
11413;BME280;5762;43.256;26.960;2023-03-13T09:36:14;100323.84;;;10.76;79.43
11413;BME280;5762;43.256;26.960;2023-03-13T09:38:43;100321.16;;;11.05;72.68
11413;BME280;5762;43.256;26.960;2023-03-13T09:51:38;100338.52;;;11.01;40.58
11413;BME280;5762;43.256;26.960;2023-03-13T09:54:19;100324.51;;;11.18;43.74
11413;BME280;5762;43.256;26.960;2023-03-13T09:56:49;100326.80;;;11.32;44.06
11413;BME280;5762;43.256;26.960;2023-03-13T09:59:21;100333.23;;;11.39;39.54
11413;BME280;5762;43.256;26.960;2023-03-13T10:01:45;100330.90;;;11.51;42.02
11413;BME280;5762;43.256;26.960;2023-03-13T10:06:49;100327.55;;;11.38;50.13
11413;BME280;5762;43.256;26.960;2023-03-13T10:09:28;100310.66;;;11.22;54.47
11413;BME280;5762;43.256;26.960;2023-03-13T10:11:59;100308.80;;;10.94;57.80
11413;BME280;5762;43.256;26.960;2023-03-13T10:14:30;100305.88;;;10.88;60.64
11413;BME280;5762;43.256;26.960;2023-03-13T10:19:44;100311.80;;;11.16;56.55
11413;BME280;5762;43.256;26.960;2023-03-13T10:22:16;100312.66;;;11.12;58.20
11413;BME280;5762;43.256;26.960;2023-03-13T10:24:54;100310.23;;;11.10;59.50
11413;BME280;5762;43.256;26.960;2023-03-13T10:27:22;100302.97;;;11.08;60.32
11413;BME280;5762;43.256;26.960;2023-03-13T10:29:50;100298.98;;;11.46;57.70
11413;BME280;5762;43.256;26.960;2023-03-13T10:32:19;100293.66;;;11.59;58.00
11413;BME280;5762;43.256;26.960;2023-03-13T10:37:39;100296.80;;;11.69;53.98
11413;BME280;5762;43.256;26.960;2023-03-13T10:39:52;100288.30;;;11.78;53.06
11413;BME280;5762;43.256;26.960;2023-03-13T10:42:27;100286.24;;;11.67;51.79
11413;BME280;5762;43.256;26.960;2023-03-13T10:44:59;100276.10;;;11.78;54.48
11413;BME280;5762;43.256;26.960;2023-03-13T10:47:32;100270.06;;;11.81;52.73
11413;BME280;5762;43.256;26.960;2023-03-13T10:49:58;100272.67;;;11.89;53.59
11413;BME280;5762;43.256;26.960;2023-03-13T10:55:00;100272.93;;;12.25;54.08
11413;BME280;5762;43.256;26.960;2023-03-13T10:57:29;100269.74;;;12.20;51.29
11413;BME280;5762;43.256;26.960;2023-03-13T10:59:57;100266.11;;;12.11;52.01
11413;BME280;5762;43.256;26.960;2023-03-13T11:02:32;100269.12;;;12.42;53.93
11413;BME280;5762;43.256;26.960;2023-03-13T11:07:34;100247.89;;;12.60;49.46
11413;BME280;5762;43.256;26.960;2023-03-13T11:12:33;100232.73;;;12.43;49.41
11413;BME280;5762;43.256;26.960;2023-03-13T11:15:02;100237.83;;;12.61;49.79
11413;BME280;5762;43.256;26.960;2023-03-13T11:17:33;100235.78;;;12.83;48.31
11413;BME280;5762;43.256;26.960;2023-03-13T11:25:19;100215.94;;;13.12;48.21
11413;BME280;5762;43.256;26.960;2023-03-13T11:33:03;100214.02;;;12.99;44.77
11413;BME280;5762;43.256;26.960;2023-03-13T11:38:08;100196.91;;;12.98;46.82
11413;BME280;5762;43.256;26.960;2023-03-13T11:40:38;100191.98;;;13.00;46.06
11413;BME280;5762;43.256;26.960;2023-03-13T11:53:43;100187.60;;;13.02;45.62
11413;BME280;5762;43.256;26.960;2023-03-13T11:56:16;100181.23;;;12.82;43.86
11413;BME280;5762;43.256;26.960;2023-03-13T11:58:49;100174.84;;;12.75;45.48
11413;BME280;5762;43.256;26.960;2023-03-13T12:01:17;100175.97;;;12.85;44.63
11413;BME280;5762;43.256;26.960;2023-03-13T12:03:57;100176.89;;;12.94;42.06
11413;BME280;5762;43.256;26.960;2023-03-13T12:06:30;100178.11;;;12.74;42.39
11413;BME280;5762;43.256;26.960;2023-03-13T12:09:00;100171.32;;;12.74;43.32
11413;BME280;5762;43.256;26.960;2023-03-13T12:11:30;100176.83;;;12.83;42.88
11413;BME280;5762;43.256;26.960;2023-03-13T12:13:59;100169.64;;;12.90;43.02
11413;BME280;5762;43.256;26.960;2023-03-13T12:16:41;100166.56;;;13.07;42.97
11413;BME280;5762;43.256;26.960;2023-03-13T12:19:10;100167.22;;;13.02;42.45
11413;BME280;5762;43.256;26.960;2023-03-13T12:21:44;100169.48;;;13.11;41.91
11413;BME280;5762;43.256;26.960;2023-03-13T12:24:18;100163.60;;;12.93;40.95
11413;BME280;5762;43.256;26.960;2023-03-13T12:26:44;100160.05;;;12.67;40.60
11413;BME280;5762;43.256;26.960;2023-03-13T12:29:24;100166.85;;;12.81;40.06
11413;BME280;5762;43.256;26.960;2023-03-13T12:34:19;100160.98;;;12.88;40.13
11413;BME280;5762;43.256;26.960;2023-03-13T12:36:51;100162.59;;;13.02;40.35
11413;BME280;5762;43.256;26.960;2023-03-13T12:41:55;100160.14;;;13.64;38.45
11413;BME280;5762;43.256;26.960;2023-03-13T12:44:19;100161.25;;;13.63;39.95
11413;BME280;5762;43.256;26.960;2023-03-13T12:46:52;100157.94;;;13.30;40.09
11413;BME280;5762;43.256;26.960;2023-03-13T12:49:24;100153.02;;;13.19;40.21
11413;BME280;5762;43.256;26.960;2023-03-13T12:54:53;100153.11;;;13.27;41.18
11413;BME280;5762;43.256;26.960;2023-03-13T12:59:56;100146.95;;;13.35;41.39
11413;BME280;5762;43.256;26.960;2023-03-13T13:02:18;100144.83;;;13.80;42.82
11413;BME280;5762;43.256;26.960;2023-03-13T13:04:47;100153.09;;;13.97;40.90
11413;BME280;5762;43.256;26.960;2023-03-13T13:07:21;100132.11;;;14.20;39.93
11413;BME280;5762;43.256;26.960;2023-03-13T13:12:32;100150.31;;;13.66;40.76
11413;BME280;5762;43.256;26.960;2023-03-13T13:15:10;100148.23;;;13.85;41.08
11413;BME280;5762;43.256;26.960;2023-03-13T13:17:34;100147.70;;;14.17;41.51
11413;BME280;5762;43.256;26.960;2023-03-13T13:22:50;100140.44;;;13.81;41.81
11413;BME280;5762;43.256;26.960;2023-03-13T13:25:29;100143.75;;;13.56;42.78
11413;BME280;5762;43.256;26.960;2023-03-13T13:27:48;100152.36;;;13.71;42.47
11413;BME280;5762;43.256;26.960;2023-03-13T13:32:48;100146.34;;;13.94;42.01
11413;BME280;5762;43.256;26.960;2023-03-13T13:35:18;100145.63;;;13.80;41.73
11413;BME280;5762;43.256;26.960;2023-03-13T13:37:48;100142.51;;;14.06;41.61
11413;BME280;5762;43.256;26.960;2023-03-13T13:42:54;100134.58;;;14.38;41.62
11413;BME280;5762;43.256;26.960;2023-03-13T13:48:12;100131.68;;;14.35;41.19
11413;BME280;5762;43.256;26.960;2023-03-13T13:50:22;100130.58;;;14.25;41.28
11413;BME280;5762;43.256;26.960;2023-03-13T13:52:51;100127.17;;;13.99;42.31
11413;BME280;5762;43.256;26.960;2023-03-13T13:55:40;100128.16;;;13.92;42.13
11413;BME280;5762;43.256;26.960;2023-03-13T13:58:03;100123.64;;;13.99;42.61
11413;BME280;5762;43.256;26.960;2023-03-13T14:00:41;100120.05;;;14.32;41.73
11413;BME280;5762;43.256;26.960;2023-03-13T14:03:15;100121.04;;;14.47;41.41
11413;BME280;5762;43.256;26.960;2023-03-13T14:05:40;100121.11;;;14.45;40.82
11413;BME280;5762;43.256;26.960;2023-03-13T14:08:31;100118.91;;;14.84;40.94
11413;BME280;5762;43.256;26.960;2023-03-13T14:11:04;100113.01;;;15.07;40.45
11413;BME280;5762;43.256;26.960;2023-03-13T14:13:32;100121.70;;;14.53;40.24
11413;BME280;5762;43.256;26.960;2023-03-13T14:18:30;100119.83;;;14.70;40.16
11413;BME280;5762;43.256;26.960;2023-03-13T14:21:00;100112.81;;;14.95;41.16
11413;BME280;5762;43.256;26.960;2023-03-13T14:23:35;100108.52;;;15.12;41.17